Time;durP1;ratioP1;P1;durP2;ratioP2;P2;SDS_P1;SDS_P2;PMS_P1;PMS_P2;Temp;Humidity;BMP_temperature;BMP_pressure;BME280_temperature;BME280_humidity;BME280_pressure;Samples;Min_cycle;Max_cycle;Signal;HPM_P1;HPM_P2
2021/12/25 00:00:37;;;;;;;17.65;9.23;;;;;;;4.77;100.00;100500.53;4953258;28;20035;-72
2021/12/25 00:03:03;;;;;;;20.60;10.27;;;;;;;4.93;100.00;100517.34;4976854;28;20045;-70
2021/12/25 00:05:29;;;;;;;20.38;9.68;;;;;;;4.86;100.00;100500.00;4966212;28;20030;-73
2021/12/25 00:08:03;;;;;;;20.98;10.45;;;;;;;4.78;100.00;100492.50;4947288;28;20046;-72
2021/12/25 00:10:30;;;;;;;21.42;9.77;;;;;;;4.69;100.00;100469.09;4956770;28;20054;-70
2021/12/25 00:16:12;;;;;;;19.10;8.85;;;;;;;4.83;100.00;100505.50;4975896;28;20050;-70
2021/12/25 00:19:00;;;;;;;20.88;10.20;;;;;;;4.77;100.00;100480.13;4958501;28;20049;-73
2021/12/25 00:21:42;;;;;;;19.10;9.25;;;;;;;4.78;100.00;100483.63;4979467;28;20030;-72
2021/12/25 00:24:20;;;;;;;21.75;9.93;;;;;;;4.71;100.00;100474.34;4952348;28;20081;-72
2021/12/25 00:27:10;;;;;;;23.50;11.70;;;;;;;4.67;100.00;100478.97;4975970;28;20038;-72
2021/12/25 00:29:55;;;;;;;22.58;9.73;;;;;;;4.65;100.00;100468.44;4944259;28;20034;-75
2021/12/25 00:35:37;;;;;;;24.30;10.60;;;;;;;4.61;100.00;100468.72;4951257;28;20397;-70
2021/12/25 01:22:48;;;;;;;27.27;12.18;;;;;;;4.08;100.00;100476.16;4992317;23;20745;-70
2021/12/25 01:25:25;;;;;;;21.98;10.23;;;;;;;4.16;100.00;100492.53;4946857;28;20540;-70
2021/12/25 01:34:26;;;;;;;18.23;9.98;;;;;;;4.07;100.00;100530.22;4942372;28;20065;-73
2021/12/25 01:41:57;;;;;;;17.42;8.05;;;;;;;3.64;100.00;100507.75;4943895;28;20118;-71
2021/12/25 01:49:55;;;;;;;15.88;8.38;;;;;;;3.51;100.00;100506.69;4945809;28;20398;-70
2021/12/25 01:52:29;;;;;;;15.98;8.52;;;;;;;3.30;100.00;100486.53;4958083;28;20039;-76
2021/12/25 01:55:10;;;;;;;15.55;8.30;;;;;;;3.64;100.00;100515.72;4928206;28;20023;-75
2021/12/25 01:58:00;;;;;;;23.63;11.52;;;;;;;3.63;100.00;100521.09;4957717;28;22251;-74
2021/12/25 02:00:30;;;;;;;23.52;12.10;;;;;;;3.66;100.00;100507.66;4930711;28;20347;-74
2021/12/25 02:02:56;;;;;;;19.00;10.63;;;;;;;3.28;100.00;100480.47;4962787;28;20240;-76
2021/12/25 02:05:25;;;;;;;19.77;10.23;;;;;;;3.27;100.00;100480.53;4963948;28;20436;-70
2021/12/25 02:07:50;;;;;;;20.80;11.57;;;;;;;3.37;100.00;100515.38;4965034;28;20510;-69
2021/12/25 02:10:17;;;;;;;15.73;9.02;;;;;;;3.05;100.00;100478.13;4942830;28;20050;-69
2021/12/25 02:12:45;;;;;;;18.92;9.05;;;;;;;3.22;100.00;100514.38;4966511;28;20147;-76
2021/12/25 02:15:24;;;;;;;19.08;9.35;;;;;;;3.27;100.00;100489.34;4943833;28;20034;-70
2021/12/25 02:18:03;;;;;;;17.83;9.68;;;;;;;3.07;100.00;100497.47;4951626;28;20029;-74
2021/12/25 02:20:38;;;;;;;19.05;8.85;;;;;;;3.25;100.00;100522.19;4941436;28;20046;-75
2021/12/25 02:23:21;;;;;;;20.50;9.80;;;;;;;3.00;100.00;100491.63;4943682;28;20023;-75
2021/12/25 02:25:47;;;;;;;18.63;9.13;;;;;;;3.03;100.00;100509.22;4946280;28;20277;-70
2021/12/25 02:28:13;;;;;;;19.25;9.68;;;;;;;2.90;100.00;100498.38;4960830;28;20114;-70
2021/12/25 02:30:40;;;;;;;21.08;9.25;;;;;;;2.88;100.00;100511.69;4932875;28;20027;-74
2021/12/25 02:33:05;;;;;;;20.17;10.30;;;;;;;2.68;100.00;100495.00;4947539;28;20038;-74
2021/12/25 02:35:30;;;;;;;23.00;11.13;;;;;;;2.91;100.00;100522.16;4925645;28;20439;-74
2021/12/25 02:37:56;;;;;;;20.08;9.40;;;;;;;2.80;100.00;100509.44;4963379;28;20067;-70
2021/12/25 02:40:22;;;;;;;19.52;10.23;;;;;;;2.96;100.00;100536.03;4961231;28;20389;-70
2021/12/25 02:42:47;;;;;;;20.58;10.93;;;;;;;2.92;100.00;100534.47;4960005;28;20046;-70
2021/12/25 02:45:18;;;;;;;18.88;9.95;;;;;;;2.88;100.00;100532.91;4964281;28;20030;-70
2021/12/25 02:47:48;;;;;;;23.00;12.75;;;;;;;3.09;100.00;100548.66;4961519;28;20517;-70
2021/12/25 02:50:30;;;;;;;21.63;11.10;;;;;;;2.89;100.00;100547.88;4962150;28;20038;-73
2021/12/25 02:52:57;;;;;;;19.65;9.98;;;;;;;2.76;100.00;100533.53;4958937;28;20050;-70
2021/12/25 02:55:23;;;;;;;22.52;11.82;;;;;;;2.88;100.00;100540.88;4944304;28;20101;-70
2021/12/25 02:57:52;;;;;;;21.83;11.20;;;;;;;2.75;100.00;100537.13;4942256;28;20435;-70
2021/12/25 03:00:21;;;;;;;21.73;10.82;;;;;;;2.76;100.00;100546.81;4962818;28;20035;-70
2021/12/25 03:02:46;;;;;;;22.35;11.07;;;;;;;2.61;100.00;100541.31;4963679;28;20039;-73
2021/12/25 03:07:56;;;;;;;27.00;13.50;;;;;;;2.51;100.00;100537.41;4945325;28;20383;-73
2021/12/25 03:10:21;;;;;;;29.92;14.00;;;;;;;2.53;100.00;100554.94;4941993;28;20046;-75
2021/12/25 03:12:54;;;;;;;28.35;13.38;;;;;;;2.60;100.00;100560.78;4948590;28;20506;-74
2021/12/25 03:15:29;;;;;;;29.40;13.50;;;;;;;2.54;100.00;100548.72;4960250;28;20038;-75
2021/12/25 03:17:56;;;;;;;33.10;14.95;;;;;;;2.48;100.00;100537.56;4950740;28;20524;-73
2021/12/25 03:20:24;;;;;;;25.17;12.77;;;;;;;2.52;100.00;100555.88;4932519;28;20035;-70
2021/12/25 03:23:46;;;;;;;29.77;14.27;;;;;;;2.43;100.00;100553.66;4962711;28;20043;-71
2021/12/25 03:36:00;;;;;;;24.48;11.88;;;;;;;1.77;100.00;100504.69;4950511;28;20085;-70
2021/12/25 03:38:29;;;;;;;25.25;12.23;;;;;;;2.15;100.00;100560.28;4942590;28;20033;-71
2021/12/25 03:41:03;;;;;;;26.73;13.02;;;;;;;1.59;100.00;100480.78;4948290;28;20534;-71
2021/12/25 03:43:29;;;;;;;28.25;13.98;;;;;;;2.07;100.00;100560.63;4930841;28;20126;-69
2021/12/25 03:45:55;;;;;;;28.98;16.35;;;;;;;2.09;100.00;100564.09;4931368;28;20125;-73
2021/12/25 03:59:21;;;;;;;29.45;14.98;;;;;;;2.01;100.00;100582.09;4944341;28;20045;-70
2021/12/25 04:01:53;;;;;;;24.85;11.07;;;;;;;1.83;100.00;100556.47;4960848;28;20039;-70
2021/12/25 04:04:33;;;;;;;24.80;12.73;;;;;;;1.68;100.00;100571.28;4961190;28;20348;-70
2021/12/25 04:09:27;;;;;;;26.40;13.38;;;;;;;1.83;100.00;100601.50;4948290;28;20073;-70
2021/12/25 04:11:54;;;;;;;28.98;13.38;;;;;;;1.50;100.00;100552.66;4960913;28;20033;-70
2021/12/25 04:14:30;;;;;;;24.35;12.07;;;;;;;1.64;100.00;100570.56;4930281;28;20534;-72
2021/12/25 04:17:22;;;;;;;24.50;11.15;;;;;;;1.50;100.00;100564.09;4944592;28;20399;-69
2021/12/25 04:19:52;;;;;;;24.45;11.45;;;;;;;1.57;100.00;100567.34;4958654;28;20580;-70
2021/12/25 04:22:25;;;;;;;28.65;14.70;;;;;;;1.79;100.00;100587.53;4962992;28;20069;-70
2021/12/25 04:25:36;;;;;;;27.38;12.70;;;;;;;1.70;100.00;100604.72;4947021;28;20046;-70
2021/12/25 04:28:14;;;;;;;27.70;13.52;;;;;;;1.58;100.00;100598.16;4959554;28;20098;-72
2021/12/25 04:50:39;;;;;;;27.00;13.07;;;;;;;1.20;100.00;100582.16;4946058;28;20300;-72
2021/12/25 05:02:44;;;;;;;26.55;12.05;;;;;;;1.24;100.00;100615.50;4948414;28;20185;-70
2021/12/25 05:04:34;;;;;;;25.85;11.75;;;;;;;1.21;100.00;100631.50;4937797;28;20524;-69
2021/12/25 05:07:00;;;;;;;24.25;10.82;;;;;;;1.35;100.00;100630.91;4948657;28;20081;-73
2021/12/25 05:09:25;;;;;;;25.63;11.90;;;;;;;1.42;100.00;100644.72;4958444;28;20039;-73
2021/12/25 05:11:50;;;;;;;21.17;10.18;;;;;;;1.34;100.00;100639.78;4963915;28;20586;-71
2021/12/25 05:14:16;;;;;;;28.00;12.15;;;;;;;1.30;100.00;100633.75;4958559;28;20022;-71
2021/12/25 05:16:41;;;;;;;27.10;12.15;;;;;;;1.39;100.00;100645.72;4962089;28;20146;-75
2021/12/25 05:19:07;;;;;;;29.50;14.32;;;;;;;1.12;100.00;100606.31;4958635;28;20163;-74
2021/12/25 05:21:36;;;;;;;20.98;10.13;;;;;;;1.07;100.00;100616.19;4930852;28;20038;-72
2021/12/25 05:24:02;;;;;;;24.65;11.27;;;;;;;1.15;100.00;100642.31;4946958;28;20081;-69
2021/12/25 05:26:49;;;;;;;25.27;13.15;;;;;;;1.31;100.00;100639.91;4948211;28;20054;-71
2021/12/25 05:29:37;;;;;;;26.45;10.90;;;;;;;1.18;100.00;100644.84;4941409;28;20077;-69
2021/12/25 05:32:11;;;;;;;27.48;13.10;;;;;;;1.02;100.00;100621.69;4949554;28;20066;-71
2021/12/25 05:34:36;;;;;;;22.38;9.85;;;;;;;1.22;100.00;100653.50;4944930;28;20058;-70
2021/12/25 05:37:03;;;;;;;23.38;10.60;;;;;;;0.97;100.00;100647.47;4934913;28;20499;-70
2021/12/25 05:39:39;;;;;;;20.60;10.38;;;;;;;0.98;100.00;100643.00;4957409;28;20058;-70
2021/12/25 05:42:05;;;;;;;21.20;11.45;;;;;;;0.86;100.00;100637.31;4931328;28;20082;-69
2021/12/25 05:44:31;;;;;;;23.27;10.25;;;;;;;1.00;100.00;100673.78;4945681;28;20479;-69
2021/12/25 05:46:59;;;;;;;21.55;9.75;;;;;;;1.04;100.00;100671.84;4966339;28;20037;-73
2021/12/25 05:49:29;;;;;;;17.33;9.43;;;;;;;1.07;100.00;100676.16;4928243;28;20023;-73
2021/12/25 05:52:00;;;;;;;27.67;11.18;;;;;;;0.80;100.00;100648.13;4918301;29;20051;-69
2021/12/25 05:54:26;;;;;;;19.25;10.05;;;;;;;0.75;100.00;100650.09;4944416;28;20569;-73
2021/12/25 05:57:07;;;;;;;18.80;10.40;;;;;;;0.64;100.00;100650.53;4938066;28;20053;-75
2021/12/25 05:59:37;;;;;;;19.70;10.68;;;;;;;0.78;100.00;100679.06;4947300;28;20386;-74
2021/12/25 06:02:03;;;;;;;19.45;9.88;;;;;;;0.98;100.00;100687.97;4969766;28;20504;-74
2021/12/25 06:04:34;;;;;;;23.33;11.27;;;;;;;0.71;100.00;100686.38;4960835;28;20039;-75
2021/12/25 06:07:00;;;;;;;21.75;9.60;;;;;;;0.65;100.00;100683.97;4961698;28;20110;-74
2021/12/25 06:09:25;;;;;;;14.73;8.23;;;;;;;0.70;100.00;100697.84;4958444;28;20033;-75
2021/12/25 06:11:51;;;;;;;20.60;9.85;;;;;;;0.59;100.00;100694.75;4964833;28;20505;-76
2021/12/25 06:14:19;;;;;;;16.60;8.90;;;;;;;0.57;100.00;100692.19;4964622;28;20465;-74
2021/12/25 06:16:45;;;;;;;24.58;10.07;;;;;;;0.60;100.00;100704.41;4961970;28;20082;-72
2021/12/25 06:19:10;;;;;;;14.27;7.80;;;;;;;0.58;100.00;100693.91;4948994;28;20072;-71
2021/12/25 06:21:36;;;;;;;17.13;7.88;;;;;;;0.34;100.00;100668.44;4956712;28;20467;-75
2021/12/25 06:24:03;;;;;;;12.35;7.65;;;;;;;0.50;100.00;100710.97;4960463;28;20073;-73
2021/12/25 06:26:28;;;;;;;16.70;8.98;;;;;;;0.51;100.00;100713.56;4951903;28;20041;-75
2021/12/25 06:28:54;;;;;;;13.35;7.30;;;;;;;0.39;100.00;100706.09;4944911;28;20027;-73
2021/12/25 06:31:22;;;;;;;14.05;7.47;;;;;;;0.40;100.00;100686.66;4966137;28;20038;-72
2021/12/25 06:33:47;;;;;;;12.25;7.05;;;;;;;0.45;100.00;100705.84;4963015;28;20031;-78
2021/12/25 06:36:13;;;;;;;10.05;5.65;;;;;;;0.29;100.00;100721.41;4951493;28;20038;-77
2021/12/25 06:38:40;;;;;;;9.15;5.32;;;;;;;0.22;100.00;100725.22;4966031;28;20031;-70
2021/12/25 06:41:05;;;;;;;12.32;6.07;;;;;;;0.24;100.00;100718.94;4970633;28;20038;-72
2021/12/25 06:43:31;;;;;;;6.55;4.75;;;;;;;0.18;100.00;100728.88;4962501;28;20035;-70
2021/12/25 06:45:56;;;;;;;5.50;4.63;;;;;;;0.03;100.00;100733.78;4970742;28;20401;-69
2021/12/25 06:48:22;;;;;;;6.97;5.18;;;;;;;0.08;100.00;100731.00;4962176;28;22517;-70
2021/12/25 06:50:47;;;;;;;5.65;3.60;;;;;;;0.12;100.00;100733.47;4964361;28;20121;-70
2021/12/25 06:53:12;;;;;;;5.10;3.97;;;;;;;-0.03;100.00;100729.59;4929204;28;20712;-72
2021/12/25 06:55:38;;;;;;;6.05;4.57;;;;;;;-0.23;99.89;100729.44;4965810;28;20041;-70
2021/12/25 06:58:04;;;;;;;12.77;4.38;;;;;;;-0.17;100.00;100731.88;4962577;28;20030;-70
2021/12/25 07:00:30;;;;;;;5.55;3.10;;;;;;;-0.04;100.00;100743.69;4948680;28;20057;-76
2021/12/25 07:02:55;;;;;;;4.72;3.78;;;;;;;-0.15;100.00;100740.59;4948249;28;20106;-72
2021/12/25 07:05:21;;;;;;;5.53;3.97;;;;;;;-0.22;100.00;100744.34;4945019;28;20520;-73
2021/12/25 07:07:47;;;;;;;7.28;4.82;;;;;;;-0.15;100.00;100735.31;4967996;28;20070;-73
2021/12/25 07:10:12;;;;;;;6.35;4.20;;;;;;;-0.27;99.04;100747.16;4961737;28;20122;-72
2021/12/25 07:12:39;;;;;;;5.03;4.45;;;;;;;-0.36;100.00;100748.31;4963905;28;20034;-73
2021/12/25 07:15:06;;;;;;;6.25;4.70;;;;;;;-0.33;100.00;100755.28;4960136;28;20031;-73
2021/12/25 07:17:32;;;;;;;6.68;4.95;;;;;;;-0.23;100.00;100758.44;4965406;28;20039;-70
2021/12/25 07:19:57;;;;;;;7.00;4.60;;;;;;;-0.37;100.00;100740.44;4958884;28;20030;-72
2021/12/25 07:22:22;;;;;;;6.50;4.72;;;;;;;-0.48;100.00;100754.84;4947751;28;20034;-75
2021/12/25 07:24:48;;;;;;;8.05;4.50;;;;;;;-0.34;100.00;100743.00;4941762;28;20444;-75
2021/12/25 07:27:13;;;;;;;5.22;4.03;;;;;;;-0.50;100.00;100756.69;4966760;28;20774;-75
2021/12/25 07:29:39;;;;;;;7.25;4.57;;;;;;;-0.43;99.67;100769.66;4960372;28;20114;-75
2021/12/25 07:32:04;;;;;;;7.18;5.32;;;;;;;-0.52;99.18;100762.94;4957944;28;20357;-72
2021/12/25 07:34:30;;;;;;;7.55;4.78;;;;;;;-0.47;99.64;100775.03;4943974;28;20034;-71
2021/12/25 07:36:55;;;;;;;6.63;5.63;;;;;;;-0.54;98.21;100760.34;4955568;28;20406;-75
2021/12/25 07:39:25;;;;;;;9.35;5.70;;;;;;;-0.93;99.08;100729.06;4962027;28;20613;-76
2021/12/25 07:41:51;;;;;;;6.68;5.03;;;;;;;-0.62;99.17;100754.47;4947627;28;20031;-75
2021/12/25 07:44:17;;;;;;;6.20;4.45;;;;;;;-0.88;99.28;100755.28;4942213;28;20030;-77
2021/12/25 07:46:44;;;;;;;10.38;5.97;;;;;;;-0.81;100.00;100788.44;4947764;28;20094;-76
2021/12/25 07:49:16;;;;;;;6.93;4.70;;;;;;;-0.82;100.00;100792.88;4958206;28;20591;-74
2021/12/25 07:51:41;;;;;;;7.55;5.25;;;;;;;-0.69;99.96;100793.34;4940357;28;20078;-74
2021/12/25 07:54:08;;;;;;;11.15;6.30;;;;;;;-0.61;100.00;100793.09;4960270;28;20431;-76
2021/12/25 07:56:34;;;;;;;8.63;5.03;;;;;;;-0.79;99.78;100755.84;4965512;28;20125;-73
2021/12/25 07:59:02;;;;;;;7.68;4.60;;;;;;;-0.51;98.90;100797.16;4934733;28;20149;-75
2021/12/25 08:01:29;;;;;;;5.65;4.78;;;;;;;-0.47;99.14;100796.16;4964029;28;20058;-75
2021/12/25 08:03:55;;;;;;;5.80;4.57;;;;;;;-0.58;98.67;100807.97;4944935;28;20170;-75
2021/12/25 08:06:20;;;;;;;6.75;4.97;;;;;;;-0.92;99.13;100763.28;4946651;28;20114;-73
2021/12/25 08:08:46;;;;;;;6.75;4.45;;;;;;;-0.76;98.80;100805.84;4925610;28;20240;-72
2021/12/25 08:11:13;;;;;;;7.50;4.68;;;;;;;-0.91;98.79;100774.69;4944018;28;20034;-74
2021/12/25 08:13:39;;;;;;;8.75;4.97;;;;;;;-0.84;99.50;100812.28;4942804;28;20051;-72
2021/12/25 08:16:04;;;;;;;8.98;5.78;;;;;;;-0.89;99.28;100801.00;4937611;28;20038;-72
2021/12/25 08:18:31;;;;;;;5.88;4.38;;;;;;;-0.84;99.77;100813.16;4960859;28;20033;-73
2021/12/25 08:20:56;;;;;;;5.72;4.13;;;;;;;-0.98;98.05;100779.31;4958369;28;20027;-73
2021/12/25 08:23:21;;;;;;;10.18;5.55;;;;;;;-0.91;98.39;100817.72;4944872;28;20042;-72
2021/12/25 08:25:47;;;;;;;8.85;6.57;;;;;;;-1.27;98.50;100788.94;4927839;28;20042;-72
2021/12/25 08:28:12;;;;;;;6.75;4.90;;;;;;;-0.92;98.86;100823.06;4922645;28;20030;-73
2021/12/25 08:30:40;;;;;;;11.77;6.55;;;;;;;-0.99;98.73;100819.75;4944310;28;20120;-71
2021/12/25 08:33:12;;;;;;;7.50;5.18;;;;;;;-0.87;98.29;100828.19;4933532;28;20069;-72
2021/12/25 08:35:40;;;;;;;5.63;5.05;;;;;;;-0.95;98.81;100826.66;4946309;28;20054;-71
2021/12/25 08:38:06;;;;;;;8.57;5.40;;;;;;;-1.08;98.13;100818.25;4940535;28;20031;-72
2021/12/25 08:40:31;;;;;;;10.27;6.18;;;;;;;-0.85;97.06;100821.97;4942199;28;20466;-74
2021/12/25 08:43:00;;;;;;;6.03;4.63;;;;;;;-1.14;97.89;100814.91;4942318;28;20065;-73
2021/12/25 08:45:46;;;;;;;7.40;5.28;;;;;;;-1.06;97.93;100832.22;4959799;28;20490;-72
2021/12/25 08:48:19;;;;;;;8.75;5.63;;;;;;;-1.14;97.76;100828.97;4946120;28;20030;-72
2021/12/25 08:50:48;;;;;;;4.68;3.85;;;;;;;-1.02;97.67;100840.03;4944147;28;20098;-71
2021/12/25 08:53:14;;;;;;;5.13;3.30;;;;;;;-0.97;97.68;100843.41;4960390;28;20018;-74
2021/12/25 08:55:39;;;;;;;5.70;4.25;;;;;;;-1.10;97.16;100830.63;4943174;28;20426;-74
2021/12/25 08:58:05;;;;;;;8.95;4.85;;;;;;;-1.04;96.74;100855.03;4946249;28;20570;-73
2021/12/25 09:00:30;;;;;;;9.57;5.07;;;;;;;-1.21;96.89;100844.09;4949777;28;20504;-73
2021/12/25 09:02:55;;;;;;;7.93;5.07;;;;;;;-1.33;98.17;100833.91;4962544;28;20034;-73
2021/12/25 09:05:21;;;;;;;10.65;5.13;;;;;;;-1.04;98.70;100860.31;4946012;28;20030;-73
2021/12/25 09:07:46;;;;;;;7.00;5.32;;;;;;;-1.24;96.66;100838.91;4966465;28;20045;-73
2021/12/25 09:10:12;;;;;;;7.50;4.47;;;;;;;-1.10;97.62;100871.91;4955180;28;20485;-70
2021/12/25 09:12:41;;;;;;;10.43;5.10;;;;;;;-1.12;97.45;100868.44;4961736;28;20458;-72
2021/12/25 09:15:08;;;;;;;6.20;5.20;;;;;;;-1.10;96.57;100878.03;4963522;28;20475;-70
2021/12/25 09:17:33;;;;;;;9.18;5.15;;;;;;;-1.10;98.73;100864.88;4962660;28;21093;-70
2021/12/25 09:20:01;;;;;;;11.43;5.93;;;;;;;-0.99;96.77;100882.13;4944727;28;20035;-68
2021/12/25 09:22:26;;;;;;;7.22;5.13;;;;;;;-1.12;95.18;100879.88;4963916;28;20057;-70
2021/12/25 09:24:52;;;;;;;6.47;4.32;;;;;;;-1.06;97.29;100870.91;4941590;28;20486;-68
2021/12/25 09:27:17;;;;;;;7.75;5.25;;;;;;;-1.12;96.32;100864.06;4963774;28;20038;-70
2021/12/25 09:29:42;;;;;;;8.10;5.55;;;;;;;-0.80;96.15;100882.47;4940377;28;20053;-70
2021/12/25 09:32:08;;;;;;;10.82;5.25;;;;;;;-1.00;96.33;100867.22;4961805;28;20042;-69
2021/12/25 09:34:33;;;;;;;8.88;5.45;;;;;;;-0.80;96.06;100885.97;4953867;28;20038;-69
2021/12/25 09:36:59;;;;;;;7.25;5.63;;;;;;;-0.78;94.53;100884.13;4964313;28;20038;-69
2021/12/25 09:39:27;;;;;;;8.10;5.50;;;;;;;-0.72;94.71;100875.19;4957192;28;20041;-69
2021/12/25 09:41:53;;;;;;;5.93;4.88;;;;;;;-0.58;93.56;100880.03;4947654;28;20034;-70
2021/12/25 09:44:18;;;;;;;5.15;4.10;;;;;;;-0.43;92.47;100888.38;4930210;28;20023;-70
2021/12/25 09:46:44;;;;;;;6.00;4.88;;;;;;;-0.58;91.26;100880.03;4956564;28;20065;-69
2021/12/25 09:49:10;;;;;;;6.25;4.35;;;;;;;-0.96;92.26;100853.06;4941661;28;20035;-70
2021/12/25 09:51:36;;;;;;;6.63;3.85;;;;;;;-0.74;91.72;100877.00;4945177;28;20114;-71
2021/12/25 09:54:06;;;;;;;7.70;4.95;;;;;;;-0.81;91.33;100868.44;4937162;28;20023;-71
2021/12/25 09:56:33;;;;;;;7.35;5.80;;;;;;;-0.58;91.27;100900.25;4944165;28;20038;-71
2021/12/25 09:58:58;;;;;;;5.18;3.88;;;;;;;-0.40;90.18;100905.00;4945275;28;20034;-71
2021/12/25 10:01:36;;;;;;;5.03;3.88;;;;;;;0.16;88.82;100895.28;4960297;28;20069;-72
2021/12/25 10:04:01;;;;;;;7.28;4.68;;;;;;;0.49;86.68;100884.47;4960586;28;20050;-71
2021/12/25 10:06:31;;;;;;;3.92;3.35;;;;;;;1.13;84.17;100864.53;4961835;28;20105;-71
2021/12/25 10:08:56;;;;;;;5.13;2.70;;;;;;;1.37;80.45;100883.03;4956212;28;20058;-69
2021/12/25 10:11:22;;;;;;;4.55;3.75;;;;;;;1.91;80.77;100883.53;4960634;28;20126;-73
2021/12/25 10:13:47;;;;;;;4.35;2.55;;;;;;;1.55;79.73;100880.59;4963520;28;20026;-71
2021/12/25 10:16:29;;;;;;;2.88;2.38;;;;;;;1.50;78.44;100875.50;4945094;28;20823;-71
2021/12/25 10:19:18;;;;;;;3.92;2.83;;;;;;;2.04;77.47;100881.25;4964400;28;20397;-71
2021/12/25 10:21:44;;;;;;;3.97;2.70;;;;;;;1.85;77.55;100893.53;4944880;28;20034;-70
2021/12/25 10:24:19;;;;;;;3.53;2.22;;;;;;;2.22;74.87;100894.66;4953033;28;20422;-70
2021/12/25 10:26:48;;;;;;;2.72;2.50;;;;;;;2.29;74.44;100901.41;4948889;28;20330;-70
2021/12/25 10:29:26;;;;;;;2.35;2.15;;;;;;;2.19;73.51;100868.31;4962811;28;20033;-70
2021/12/25 10:31:58;;;;;;;4.75;2.65;;;;;;;2.60;74.32;100888.66;4964386;28;20466;-70
2021/12/25 10:34:25;;;;;;;1.92;1.73;;;;;;;3.34;69.25;100876.47;4949544;28;20054;-71
2021/12/25 10:36:50;;;;;;;4.75;2.10;;;;;;;3.64;68.16;100881.25;4944851;28;20041;-71
2021/12/25 10:39:22;;;;;;;1.98;1.60;;;;;;;4.31;65.69;100892.16;4944465;28;20183;-71
2021/12/25 10:41:53;;;;;;;2.63;2.13;;;;;;;4.42;65.24;100873.84;4961395;28;20027;-69
2021/12/25 10:44:48;;;;;;;4.30;2.20;;;;;;;4.44;65.22;100882.59;4963671;28;20030;-70
2021/12/25 10:47:20;;;;;;;1.77;1.67;;;;;;;3.92;64.06;100874.59;4960575;28;20047;-71
2021/12/25 10:49:51;;;;;;;3.75;1.77;;;;;;;4.54;63.65;100858.22;4941681;28;20045;-69
2021/12/25 10:52:30;;;;;;;2.55;1.85;;;;;;;4.94;62.61;100866.72;4944921;28;20074;-71
2021/12/25 10:54:58;;;;;;;1.50;1.40;;;;;;;4.93;60.59;100863.22;4958091;28;20022;-71
2021/12/25 10:57:39;;;;;;;1.60;1.50;;;;;;;5.33;61.48;100868.16;4960584;28;20412;-71
2021/12/25 11:00:09;;;;;;;2.55;1.85;;;;;;;5.63;59.45;100878.06;4928985;28;20023;-69
2021/12/25 11:02:45;;;;;;;3.35;2.00;;;;;;;5.28;57.29;100858.72;4960098;28;20031;-72
2021/12/25 11:05:28;;;;;;;5.15;3.10;;;;;;;5.35;58.38;100860.97;4965595;28;20023;-72
2021/12/25 11:08:05;;;;;;;3.50;1.48;;;;;;;5.34;59.57;100872.56;4955682;28;20188;-71
2021/12/25 11:10:31;;;;;;;2.03;1.90;;;;;;;5.97;58.59;100873.44;4956661;28;20030;-71
2021/12/25 11:12:57;;;;;;;4.55;1.83;;;;;;;6.45;56.89;100849.34;4944638;28;20034;-71
2021/12/25 11:15:30;;;;;;;1.60;1.50;;;;;;;6.20;55.44;100865.97;4955258;28;20027;-71
2021/12/25 11:18:05;;;;;;;2.22;2.03;;;;;;;5.13;56.09;100869.25;4932860;28;20463;-72
2021/12/25 11:20:42;;;;;;;4.22;2.30;;;;;;;5.81;55.73;100869.94;4941518;28;20081;-73
2021/12/25 11:23:15;;;;;;;4.10;3.08;;;;;;;5.31;54.90;100842.56;4955868;28;20034;-70
2021/12/25 11:25:44;;;;;;;4.13;2.20;;;;;;;5.96;54.29;100861.06;4926485;28;20037;-72
2021/12/25 11:28:18;;;;;;;3.30;2.20;;;;;;;6.24;53.81;100858.63;4943636;28;20121;-70
2021/12/25 11:30:46;;;;;;;2.33;1.92;;;;;;;6.19;54.39;100807.38;4947510;28;20046;-72
2021/12/25 11:33:14;;;;;;;3.38;1.90;;;;;;;6.96;52.00;100816.00;4962166;28;20166;-72
2021/12/25 11:35:40;;;;;;;3.13;1.77;;;;;;;7.03;53.16;100864.50;4955257;28;20034;-72
2021/12/25 11:38:08;;;;;;;2.33;1.95;;;;;;;7.21;51.09;100867.84;4941056;28;20376;-72
2021/12/25 11:40:37;;;;;;;1.70;1.60;;;;;;;7.24;51.04;100810.72;4944380;28;20066;-73
2021/12/25 11:43:04;;;;;;;3.83;1.77;;;;;;;8.16;47.84;100840.34;4945084;28;20371;-73
2021/12/25 11:45:34;;;;;;;1.50;1.40;;;;;;;8.91;49.30;100863.75;4943725;28;20041;-72
2021/12/25 11:48:10;;;;;;;1.88;1.60;;;;;;;8.01;47.29;100852.94;4961607;28;20110;-71
2021/12/25 11:50:41;;;;;;;1.98;1.70;;;;;;;8.30;48.25;100863.47;4945054;28;20065;-71
2021/12/25 11:53:38;;;;;;;2.63;1.90;;;;;;;8.28;45.86;100850.22;4966203;28;20281;-72
2021/12/25 11:56:26;;;;;;;2.70;1.70;;;;;;;7.85;46.79;100823.69;4946539;28;20065;-73
2021/12/25 11:58:54;;;;;;;1.55;1.45;;;;;;;7.60;47.27;100814.63;4942144;28;20031;-71
2021/12/25 12:01:37;;;;;;;4.32;1.70;;;;;;;8.40;46.33;100875.28;4952223;28;20050;-71
2021/12/25 12:04:26;;;;;;;4.60;1.50;;;;;;;8.41;46.64;100826.16;4953593;28;20479;-72
2021/12/25 12:07:01;;;;;;;1.80;1.58;;;;;;;8.43;46.61;100844.78;4962374;28;20041;-72
2021/12/25 12:09:30;;;;;;;;;;;;;;;7.41;47.98;100871.09;4958844;28;20351;-72
2021/12/25 12:12:04;;;;;;;2.10;1.45;;;;;;;6.90;49.21;100875.09;4956417;28;19952;-71
2021/12/25 12:14:31;;;;;;;1.90;1.70;;;;;;;7.27;48.11;100855.94;4942092;28;20034;-72
2021/12/25 12:17:02;;;;;;;1.38;1.38;;;;;;;8.43;47.37;100858.16;4965024;28;20034;-70
2021/12/25 12:19:30;;;;;;;2.58;1.60;;;;;;;8.12;46.50;100861.09;4945973;28;20478;-72
2021/12/25 12:22:08;;;;;;;2.67;1.70;;;;;;;8.63;46.61;100849.63;4963858;28;20550;-71
2021/12/25 12:28:02;;;;;;;1.40;1.30;;;;;;;7.98;46.32;100847.78;4922003;28;20089;-73
2021/12/25 12:30:30;;;;;;;2.22;1.40;;;;;;;7.75;46.55;100842.16;4959615;28;20034;-72
2021/12/25 12:33:11;;;;;;;2.08;1.60;;;;;;;8.22;47.69;100851.47;4958929;28;20038;-73
2021/12/25 12:35:40;;;;;;;3.53;1.60;;;;;;;7.76;46.49;100844.72;4959096;28;20034;-71
2021/12/25 12:38:23;;;;;;;3.03;1.30;;;;;;;8.12;45.25;100855.75;4961407;28;20031;-73
2021/12/25 12:41:09;;;;;;;1.77;1.40;;;;;;;8.60;45.38;100847.19;4959126;28;20030;-72
2021/12/25 12:43:57;;;;;;;2.85;1.50;;;;;;;6.85;48.02;100866.53;4961552;28;20062;-72
2021/12/25 12:46:45;;;;;;;2.50;1.50;;;;;;;7.50;47.72;100844.63;4958705;28;20034;-71
2021/12/25 12:49:10;;;;;;;1.85;1.20;;;;;;;8.14;47.13;100839.59;4959638;28;20086;-71
2021/12/25 12:51:36;;;;;;;2.05;1.70;;;;;;;7.61;46.54;100851.06;4960555;28;20034;-71
2021/12/25 12:54:01;;;;;;;3.95;1.85;;;;;;;7.38;46.88;100849.91;4962827;28;20042;-71
2021/12/25 12:56:26;;;;;;;2.38;1.50;;;;;;;7.78;47.82;100831.25;4967139;28;20030;-71
2021/12/25 12:58:54;;;;;;;2.83;1.88;;;;;;;7.87;45.31;100849.38;4956954;28;20043;-72
2021/12/25 13:01:19;;;;;;;3.47;1.63;;;;;;;7.66;47.53;100827.56;4961994;28;20034;-72
2021/12/25 13:03:45;;;;;;;1.58;1.48;;;;;;;7.92;46.78;100849.06;4942530;28;20237;-71
2021/12/25 13:06:13;;;;;;;1.80;1.70;;;;;;;7.85;46.67;100837.03;4965097;28;20041;-71
2021/12/25 13:08:41;;;;;;;1.85;1.38;;;;;;;8.45;46.46;100850.88;4959754;28;20034;-72
2021/12/25 13:11:12;;;;;;;1.40;1.30;;;;;;;7.53;47.45;100830.19;4958414;28;20561;-72
2021/12/25 13:13:46;;;;;;;1.58;1.48;;;;;;;7.08;47.12;100826.88;4959731;28;20063;-71
2021/12/25 13:16:14;;;;;;;1.63;1.35;;;;;;;8.11;46.36;100833.47;4961562;28;20029;-71
2021/12/25 13:18:43;;;;;;;2.28;1.27;;;;;;;7.80;46.42;100834.69;4963209;28;20543;-71
2021/12/25 13:21:12;;;;;;;1.35;1.08;;;;;;;7.58;45.70;100840.56;4954646;28;20029;-72
2021/12/25 13:23:46;;;;;;;1.55;1.45;;;;;;;8.42;45.74;100838.56;4956084;28;20652;-71
2021/12/25 13:26:14;;;;;;;2.35;1.45;;;;;;;8.21;45.68;100838.22;4959122;28;20060;-72
2021/12/25 13:28:40;;;;;;;1.23;1.13;;;;;;;9.07;45.50;100843.94;4936925;28;21663;-72
2021/12/25 13:31:11;;;;;;;2.25;1.40;;;;;;;9.08;44.85;100826.91;4964127;28;20134;-72
2021/12/25 13:33:45;;;;;;;1.45;1.35;;;;;;;7.24;45.98;100843.63;4956920;28;20034;-72
2021/12/25 13:36:20;;;;;;;2.88;1.42;;;;;;;8.08;44.93;100833.69;4957051;28;20113;-71
2021/12/25 13:39:05;;;;;;;3.03;1.55;;;;;;;8.20;45.11;100839.19;4961739;28;20031;-72
2021/12/25 13:41:47;;;;;;;3.28;1.27;;;;;;;7.95;44.87;100835.47;4960799;28;20611;-72